sensor_id;sensor_type;location;lat;lon;timestamp;P1;durP1;ratioP1;P2;durP2;ratioP2
20792;SDS011;10556;-33.662;151.094;2022-08-01T00:02:24;0.30;;;0.30;;
20792;SDS011;10556;-33.662;151.094;2022-08-01T00:07:26;1.53;;;0.40;;
20792;SDS011;10556;-33.662;151.094;2022-08-01T00:12:29;0.43;;;0.30;;
20792;SDS011;10556;-33.662;151.094;2022-08-01T00:17:34;0.50;;;0.20;;
20792;SDS011;10556;-33.662;151.094;2022-08-01T00:22:37;0.20;;;0.20;;
20792;SDS011;10556;-33.662;151.094;2022-08-01T00:27:40;0.30;;;0.30;;
20792;SDS011;10556;-33.662;151.094;2022-08-01T00:32:44;0.83;;;0.10;;
20792;SDS011;10556;-33.662;151.094;2022-08-01T00:37:47;0.20;;;0.20;;
20792;SDS011;10556;-33.662;151.094;2022-08-01T00:42:49;0.70;;;0.13;;
20792;SDS011;10556;-33.662;151.094;2022-08-01T00:47:54;0.30;;;0.20;;
20792;SDS011;10556;-33.662;151.094;2022-08-01T00:52:57;0.27;;;0.27;;
20792;SDS011;10556;-33.662;151.094;2022-08-01T00:58:00;0.30;;;0.17;;
20792;SDS011;10556;-33.662;151.094;2022-08-01T01:03:05;0.70;;;0.20;;
20792;SDS011;10556;-33.662;151.094;2022-08-01T01:08:08;0.70;;;0.33;;
20792;SDS011;10556;-33.662;151.094;2022-08-01T01:13:20;0.80;;;0.40;;
20792;SDS011;10556;-33.662;151.094;2022-08-01T01:18:34;0.97;;;0.37;;
20792;SDS011;10556;-33.662;151.094;2022-08-01T01:23:44;0.13;;;0.13;;
20792;SDS011;10556;-33.662;151.094;2022-08-01T01:29:11;0.23;;;0.20;;
20792;SDS011;10556;-33.662;151.094;2022-08-01T01:34:17;0.40;;;0.30;;
20792;SDS011;10556;-33.662;151.094;2022-08-01T01:39:22;0.37;;;0.13;;
20792;SDS011;10556;-33.662;151.094;2022-08-01T01:44:31;0.10;;;0.10;;
20792;SDS011;10556;-33.662;151.094;2022-08-01T01:49:34;0.77;;;0.10;;
20792;SDS011;10556;-33.662;151.094;2022-08-01T01:54:39;0.57;;;0.20;;
20792;SDS011;10556;-33.662;151.094;2022-08-01T01:59:47;0.40;;;0.20;;
20792;SDS011;10556;-33.662;151.094;2022-08-01T02:04:52;0.57;;;0.20;;
20792;SDS011;10556;-33.662;151.094;2022-08-01T02:09:56;0.13;;;0.10;;
20792;SDS011;10556;-33.662;151.094;2022-08-01T02:15:02;0.70;;;0.70;;
20792;SDS011;10556;-33.662;151.094;2022-08-01T02:20:06;0.57;;;0.40;;
20792;SDS011;10556;-33.662;151.094;2022-08-01T02:25:10;0.50;;;0.50;;
20792;SDS011;10556;-33.662;151.094;2022-08-01T02:30:18;1.63;;;0.60;;
20792;SDS011;10556;-33.662;151.094;2022-08-01T02:35:24;1.73;;;1.20;;
20792;SDS011;10556;-33.662;151.094;2022-08-01T02:40:31;1.13;;;1.03;;
20792;SDS011;10556;-33.662;151.094;2022-08-01T02:45:37;6.90;;;6.20;;
20792;SDS011;10556;-33.662;151.094;2022-08-01T02:50:45;4.30;;;3.90;;
20792;SDS011;10556;-33.662;151.094;2022-08-01T02:55:50;3.03;;;2.73;;
20792;SDS011;10556;-33.662;151.094;2022-08-01T03:00:56;2.00;;;1.70;;
20792;SDS011;10556;-33.662;151.094;2022-08-01T03:06:00;2.70;;;1.10;;
20792;SDS011;10556;-33.662;151.094;2022-08-01T03:11:04;0.90;;;0.90;;
20792;SDS011;10556;-33.662;151.094;2022-08-01T03:16:09;1.03;;;0.97;;
20792;SDS011;10556;-33.662;151.094;2022-08-01T03:21:15;1.10;;;1.00;;
20792;SDS011;10556;-33.662;151.094;2022-08-01T03:26:20;0.37;;;0.30;;
20792;SDS011;10556;-33.662;151.094;2022-08-01T03:31:27;0.47;;;0.40;;
20792;SDS011;10556;-33.662;151.094;2022-08-01T03:36:30;0.50;;;0.50;;
20792;SDS011;10556;-33.662;151.094;2022-08-01T03:41:35;1.03;;;0.73;;
20792;SDS011;10556;-33.662;151.094;2022-08-01T03:46:45;2.57;;;1.00;;
20792;SDS011;10556;-33.662;151.094;2022-08-01T03:51:51;0.73;;;0.73;;
20792;SDS011;10556;-33.662;151.094;2022-08-01T03:56:55;1.13;;;0.70;;
20792;SDS011;10556;-33.662;151.094;2022-08-01T04:02:02;0.77;;;0.60;;
20792;SDS011;10556;-33.662;151.094;2022-08-01T04:07:05;1.77;;;1.33;;
20792;SDS011;10556;-33.662;151.094;2022-08-01T04:12:21;1.60;;;1.50;;
20792;SDS011;10556;-33.662;151.094;2022-08-01T04:17:26;2.43;;;1.80;;
20792;SDS011;10556;-33.662;151.094;2022-08-01T04:22:29;1.10;;;1.00;;
20792;SDS011;10556;-33.662;151.094;2022-08-01T04:27:32;14.90;;;9.77;;
20792;SDS011;10556;-33.662;151.094;2022-08-01T04:32:45;6.57;;;4.80;;
20792;SDS011;10556;-33.662;151.094;2022-08-01T04:37:48;3.73;;;2.00;;
20792;SDS011;10556;-33.662;151.094;2022-08-01T04:42:52;2.97;;;1.10;;
20792;SDS011;10556;-33.662;151.094;2022-08-01T04:47:59;4.90;;;4.10;;
20792;SDS011;10556;-33.662;151.094;2022-08-01T04:53:02;2.60;;;1.97;;
20792;SDS011;10556;-33.662;151.094;2022-08-01T04:58:05;3.40;;;2.23;;
20792;SDS011;10556;-33.662;151.094;2022-08-01T05:03:09;1.60;;;1.40;;
20792;SDS011;10556;-33.662;151.094;2022-08-01T05:08:12;3.53;;;2.77;;
20792;SDS011;10556;-33.662;151.094;2022-08-01T05:13:15;6.60;;;5.10;;
20792;SDS011;10556;-33.662;151.094;2022-08-01T05:18:19;1.40;;;1.20;;
20792;SDS011;10556;-33.662;151.094;2022-08-01T05:23:22;0.47;;;0.40;;
20792;SDS011;10556;-33.662;151.094;2022-08-01T05:28:25;2.57;;;0.73;;
20792;SDS011;10556;-33.662;151.094;2022-08-01T05:33:29;1.27;;;0.80;;
20792;SDS011;10556;-33.662;151.094;2022-08-01T05:38:32;0.53;;;0.33;;
20792;SDS011;10556;-33.662;151.094;2022-08-01T05:43:36;0.50;;;0.20;;
20792;SDS011;10556;-33.662;151.094;2022-08-01T05:48:41;0.37;;;0.20;;
20792;SDS011;10556;-33.662;151.094;2022-08-01T05:53:43;0.10;;;0.10;;
20792;SDS011;10556;-33.662;151.094;2022-08-01T05:58:46;0.10;;;0.10;;
20792;SDS011;10556;-33.662;151.094;2022-08-01T06:03:50;3.33;;;0.10;;
20792;SDS011;10556;-33.662;151.094;2022-08-01T06:08:53;0.10;;;0.10;;
20792;SDS011;10556;-33.662;151.094;2022-08-01T06:13:56;0.10;;;0.10;;
20792;SDS011;10556;-33.662;151.094;2022-08-01T06:19:00;0.20;;;0.10;;
20792;SDS011;10556;-33.662;151.094;2022-08-01T06:24:03;0.60;;;0.10;;
20792;SDS011;10556;-33.662;151.094;2022-08-01T06:29:06;19.57;;;13.47;;
20792;SDS011;10556;-33.662;151.094;2022-08-01T06:34:10;18.93;;;13.70;;
20792;SDS011;10556;-33.662;151.094;2022-08-01T06:39:13;6.37;;;4.90;;
20792;SDS011;10556;-33.662;151.094;2022-08-01T06:44:15;2.10;;;1.90;;
20792;SDS011;10556;-33.662;151.094;2022-08-01T06:49:20;1.63;;;0.90;;
20792;SDS011;10556;-33.662;151.094;2022-08-01T06:54:22;0.70;;;0.50;;
20792;SDS011;10556;-33.662;151.094;2022-08-01T06:59:25;0.40;;;0.40;;
20792;SDS011;10556;-33.662;151.094;2022-08-01T07:04:29;0.50;;;0.40;;
20792;SDS011;10556;-33.662;151.094;2022-08-01T07:09:32;0.20;;;0.13;;
20792;SDS011;10556;-33.662;151.094;2022-08-01T07:14:35;0.50;;;0.50;;
20792;SDS011;10556;-33.662;151.094;2022-08-01T07:19:39;0.10;;;0.10;;
20792;SDS011;10556;-33.662;151.094;2022-08-01T07:24:42;3.77;;;0.20;;
20792;SDS011;10556;-33.662;151.094;2022-08-01T07:29:44;1.03;;;0.20;;
20792;SDS011;10556;-33.662;151.094;2022-08-01T07:34:49;10.40;;;4.37;;
20792;SDS011;10556;-33.662;151.094;2022-08-01T07:39:51;9.73;;;5.20;;
20792;SDS011;10556;-33.662;151.094;2022-08-01T07:44:54;5.87;;;2.23;;
20792;SDS011;10556;-33.662;151.094;2022-08-01T07:50:01;5.43;;;2.73;;
20792;SDS011;10556;-33.662;151.094;2022-08-01T07:55:04;4.80;;;2.10;;
20792;SDS011;10556;-33.662;151.094;2022-08-01T08:00:08;10.47;;;5.03;;
20792;SDS011;10556;-33.662;151.094;2022-08-01T08:05:13;6.37;;;3.43;;
20792;SDS011;10556;-33.662;151.094;2022-08-01T08:10:15;7.83;;;4.07;;
20792;SDS011;10556;-33.662;151.094;2022-08-01T08:15:18;8.37;;;5.27;;
20792;SDS011;10556;-33.662;151.094;2022-08-01T08:20:23;6.63;;;4.77;;
20792;SDS011;10556;-33.662;151.094;2022-08-01T08:25:25;4.97;;;3.37;;
20792;SDS011;10556;-33.662;151.094;2022-08-01T08:30:28;6.93;;;5.10;;
20792;SDS011;10556;-33.662;151.094;2022-08-01T08:35:32;8.60;;;6.20;;
20792;SDS011;10556;-33.662;151.094;2022-08-01T08:40:35;4.23;;;3.17;;
20792;SDS011;10556;-33.662;151.094;2022-08-01T08:45:38;4.37;;;3.43;;
20792;SDS011;10556;-33.662;151.094;2022-08-01T08:50:43;8.17;;;3.43;;
20792;SDS011;10556;-33.662;151.094;2022-08-01T08:55:48;4.13;;;3.17;;
20792;SDS011;10556;-33.662;151.094;2022-08-01T09:00:51;3.30;;;2.00;;
20792;SDS011;10556;-33.662;151.094;2022-08-01T09:05:57;2.70;;;1.90;;
20792;SDS011;10556;-33.662;151.094;2022-08-01T09:10:59;3.73;;;1.97;;
20792;SDS011;10556;-33.662;151.094;2022-08-01T09:16:02;2.23;;;1.50;;
20792;SDS011;10556;-33.662;151.094;2022-08-01T09:21:12;1.27;;;0.90;;
20792;SDS011;10556;-33.662;151.094;2022-08-01T09:26:18;0.57;;;0.50;;
20792;SDS011;10556;-33.662;151.094;2022-08-01T09:31:21;0.83;;;0.63;;
20792;SDS011;10556;-33.662;151.094;2022-08-01T09:36:43;2.73;;;0.40;;
20792;SDS011;10556;-33.662;151.094;2022-08-01T09:41:51;0.37;;;0.20;;
20792;SDS011;10556;-33.662;151.094;2022-08-01T09:46:54;0.30;;;0.20;;
20792;SDS011;10556;-33.662;151.094;2022-08-01T09:52:09;0.57;;;0.20;;
20792;SDS011;10556;-33.662;151.094;2022-08-01T09:57:13;0.30;;;0.20;;
20792;SDS011;10556;-33.662;151.094;2022-08-01T10:02:27;0.33;;;0.20;;
20792;SDS011;10556;-33.662;151.094;2022-08-01T10:07:36;0.90;;;0.50;;
20792;SDS011;10556;-33.662;151.094;2022-08-01T10:12:57;4.93;;;0.40;;
20792;SDS011;10556;-33.662;151.094;2022-08-01T10:18:01;0.40;;;0.30;;
20792;SDS011;10556;-33.662;151.094;2022-08-01T10:23:08;0.53;;;0.40;;
20792;SDS011;10556;-33.662;151.094;2022-08-01T10:28:13;1.33;;;0.20;;
20792;SDS011;10556;-33.662;151.094;2022-08-01T10:33:17;0.27;;;0.27;;
20792;SDS011;10556;-33.662;151.094;2022-08-01T10:38:24;1.63;;;0.63;;
20792;SDS011;10556;-33.662;151.094;2022-08-01T10:43:28;0.70;;;0.40;;
20792;SDS011;10556;-33.662;151.094;2022-08-01T10:48:33;0.33;;;0.30;;
20792;SDS011;10556;-33.662;151.094;2022-08-01T10:53:47;0.43;;;0.40;;
20792;SDS011;10556;-33.662;151.094;2022-08-01T10:58:55;0.73;;;0.43;;
20792;SDS011;10556;-33.662;151.094;2022-08-01T11:04:04;1.53;;;1.10;;
20792;SDS011;10556;-33.662;151.094;2022-08-01T11:14:29;2.07;;;1.50;;
20792;SDS011;10556;-33.662;151.094;2022-08-01T11:19:45;2.40;;;1.60;;
20792;SDS011;10556;-33.662;151.094;2022-08-01T11:25:08;4.50;;;2.17;;
20792;SDS011;10556;-33.662;151.094;2022-08-01T11:30:23;5.00;;;2.83;;
20792;SDS011;10556;-33.662;151.094;2022-08-01T11:35:26;4.63;;;1.80;;
20792;SDS011;10556;-33.662;151.094;2022-08-01T11:40:32;8.27;;;5.70;;
20792;SDS011;10556;-33.662;151.094;2022-08-01T11:45:46;4.07;;;2.70;;
20792;SDS011;10556;-33.662;151.094;2022-08-01T11:50:50;1.93;;;1.67;;
20792;SDS011;10556;-33.662;151.094;2022-08-01T11:55:55;6.30;;;4.43;;
20792;SDS011;10556;-33.662;151.094;2022-08-01T12:00:59;7.07;;;3.50;;
20792;SDS011;10556;-33.662;151.094;2022-08-01T12:06:01;2.90;;;1.57;;
20792;SDS011;10556;-33.662;151.094;2022-08-01T12:11:06;0.80;;;0.60;;
20792;SDS011;10556;-33.662;151.094;2022-08-01T12:16:09;2.30;;;0.53;;
20792;SDS011;10556;-33.662;151.094;2022-08-01T12:21:12;0.80;;;0.67;;
20792;SDS011;10556;-33.662;151.094;2022-08-01T12:26:17;2.67;;;0.70;;
20792;SDS011;10556;-33.662;151.094;2022-08-01T12:31:19;0.83;;;0.47;;
20792;SDS011;10556;-33.662;151.094;2022-08-01T12:36:32;0.90;;;0.67;;
20792;SDS011;10556;-33.662;151.094;2022-08-01T12:41:38;1.27;;;0.70;;
20792;SDS011;10556;-33.662;151.094;2022-08-01T12:46:45;16.87;;;9.17;;
20792;SDS011;10556;-33.662;151.094;2022-08-01T12:51:47;8.50;;;5.40;;
20792;SDS011;10556;-33.662;151.094;2022-08-01T12:56:52;5.53;;;4.13;;
20792;SDS011;10556;-33.662;151.094;2022-08-01T13:01:55;11.00;;;6.77;;
20792;SDS011;10556;-33.662;151.094;2022-08-01T13:06:58;5.57;;;3.50;;
20792;SDS011;10556;-33.662;151.094;2022-08-01T13:12:09;7.40;;;5.37;;
20792;SDS011;10556;-33.662;151.094;2022-08-01T13:17:29;3.87;;;2.63;;
20792;SDS011;10556;-33.662;151.094;2022-08-01T13:22:32;6.70;;;4.33;;
20792;SDS011;10556;-33.662;151.094;2022-08-01T13:27:37;6.30;;;3.40;;
20792;SDS011;10556;-33.662;151.094;2022-08-01T13:32:40;7.77;;;4.63;;
20792;SDS011;10556;-33.662;151.094;2022-08-01T13:37:43;6.23;;;3.67;;
20792;SDS011;10556;-33.662;151.094;2022-08-01T13:42:47;5.50;;;3.33;;
20792;SDS011;10556;-33.662;151.094;2022-08-01T13:47:50;5.73;;;4.53;;
20792;SDS011;10556;-33.662;151.094;2022-08-01T13:52:52;3.67;;;2.83;;
20792;SDS011;10556;-33.662;151.094;2022-08-01T13:57:57;3.77;;;3.00;;
20792;SDS011;10556;-33.662;151.094;2022-08-01T14:02:59;4.17;;;2.63;;
20792;SDS011;10556;-33.662;151.094;2022-08-01T14:08:02;3.07;;;2.07;;
20792;SDS011;10556;-33.662;151.094;2022-08-01T14:13:06;6.30;;;4.57;;
20792;SDS011;10556;-33.662;151.094;2022-08-01T14:18:09;6.93;;;5.00;;
20792;SDS011;10556;-33.662;151.094;2022-08-01T14:23:12;8.20;;;5.10;;
20792;SDS011;10556;-33.662;151.094;2022-08-01T14:28:16;2.90;;;2.13;;
20792;SDS011;10556;-33.662;151.094;2022-08-01T14:33:19;5.40;;;3.70;;
20792;SDS011;10556;-33.662;151.094;2022-08-01T14:38:22;1.30;;;0.97;;
20792;SDS011;10556;-33.662;151.094;2022-08-01T14:43:26;1.37;;;0.50;;
20792;SDS011;10556;-33.662;151.094;2022-08-01T14:48:29;0.60;;;0.40;;
20792;SDS011;10556;-33.662;151.094;2022-08-01T14:53:32;0.50;;;0.40;;
20792;SDS011;10556;-33.662;151.094;2022-08-01T14:58:36;0.37;;;0.20;;
20792;SDS011;10556;-33.662;151.094;2022-08-01T15:03:39;0.27;;;0.23;;
20792;SDS011;10556;-33.662;151.094;2022-08-01T15:08:41;1.23;;;0.80;;
20792;SDS011;10556;-33.662;151.094;2022-08-01T15:13:46;1.40;;;0.40;;
20792;SDS011;10556;-33.662;151.094;2022-08-01T15:18:49;1.80;;;0.20;;
20792;SDS011;10556;-33.662;151.094;2022-08-01T15:23:51;1.40;;;0.40;;
20792;SDS011;10556;-33.662;151.094;2022-08-01T15:28:56;1.30;;;0.30;;
20792;SDS011;10556;-33.662;151.094;2022-08-01T15:33:58;0.70;;;0.40;;
20792;SDS011;10556;-33.662;151.094;2022-08-01T15:39:01;1.70;;;1.37;;
20792;SDS011;10556;-33.662;151.094;2022-08-01T15:44:05;1.00;;;0.90;;
20792;SDS011;10556;-33.662;151.094;2022-08-01T15:49:08;0.60;;;0.40;;
20792;SDS011;10556;-33.662;151.094;2022-08-01T15:54:11;2.03;;;1.20;;
20792;SDS011;10556;-33.662;151.094;2022-08-01T15:59:15;1.30;;;1.10;;
20792;SDS011;10556;-33.662;151.094;2022-08-01T16:04:18;1.00;;;0.90;;
20792;SDS011;10556;-33.662;151.094;2022-08-01T16:09:20;1.63;;;1.30;;
20792;SDS011;10556;-33.662;151.094;2022-08-01T16:14:25;2.93;;;1.90;;
20792;SDS011;10556;-33.662;151.094;2022-08-01T16:19:28;3.33;;;2.50;;
20792;SDS011;10556;-33.662;151.094;2022-08-01T16:24:31;1.70;;;0.70;;
20792;SDS011;10556;-33.662;151.094;2022-08-01T16:29:35;0.70;;;0.40;;
20792;SDS011;10556;-33.662;151.094;2022-08-01T16:34:38;2.67;;;0.40;;
20792;SDS011;10556;-33.662;151.094;2022-08-01T16:39:40;0.40;;;0.23;;
20792;SDS011;10556;-33.662;151.094;2022-08-01T16:44:45;1.77;;;0.40;;
20792;SDS011;10556;-33.662;151.094;2022-08-01T16:49:47;0.87;;;0.30;;
20792;SDS011;10556;-33.662;151.094;2022-08-01T16:54:50;1.90;;;0.30;;
20792;SDS011;10556;-33.662;151.094;2022-08-01T16:59:54;1.13;;;0.40;;
20792;SDS011;10556;-33.662;151.094;2022-08-01T17:04:57;0.50;;;0.30;;
20792;SDS011;10556;-33.662;151.094;2022-08-01T17:10:00;0.40;;;0.20;;
20792;SDS011;10556;-33.662;151.094;2022-08-01T17:15:05;0.30;;;0.30;;
20792;SDS011;10556;-33.662;151.094;2022-08-01T17:20:12;0.20;;;0.20;;
20792;SDS011;10556;-33.662;151.094;2022-08-01T17:25:14;2.57;;;0.30;;
20792;SDS011;10556;-33.662;151.094;2022-08-01T17:30:19;0.20;;;0.10;;
20792;SDS011;10556;-33.662;151.094;2022-08-01T17:35:21;0.67;;;0.30;;
20792;SDS011;10556;-33.662;151.094;2022-08-01T17:40:24;0.33;;;0.30;;
20792;SDS011;10556;-33.662;151.094;2022-08-01T17:45:28;1.20;;;0.20;;
20792;SDS011;10556;-33.662;151.094;2022-08-01T17:50:31;0.93;;;0.20;;
20792;SDS011;10556;-33.662;151.094;2022-08-01T17:55:36;0.33;;;0.20;;
20792;SDS011;10556;-33.662;151.094;2022-08-01T18:00:41;1.03;;;0.20;;
20792;SDS011;10556;-33.662;151.094;2022-08-01T18:05:44;0.17;;;0.17;;
20792;SDS011;10556;-33.662;151.094;2022-08-01T18:10:46;0.50;;;0.10;;
20792;SDS011;10556;-33.662;151.094;2022-08-01T18:15:51;0.67;;;0.30;;
20792;SDS011;10556;-33.662;151.094;2022-08-01T18:20:53;0.30;;;0.20;;
20792;SDS011;10556;-33.662;151.094;2022-08-01T18:25:56;0.93;;;0.30;;
20792;SDS011;10556;-33.662;151.094;2022-08-01T18:31:01;1.13;;;0.27;;
20792;SDS011;10556;-33.662;151.094;2022-08-01T18:36:03;0.67;;;0.30;;
20792;SDS011;10556;-33.662;151.094;2022-08-01T18:41:06;1.00;;;0.20;;
20792;SDS011;10556;-33.662;151.094;2022-08-01T18:46:11;0.30;;;0.20;;
20792;SDS011;10556;-33.662;151.094;2022-08-01T18:51:13;1.07;;;0.20;;
20792;SDS011;10556;-33.662;151.094;2022-08-01T18:56:16;0.57;;;0.20;;
20792;SDS011;10556;-33.662;151.094;2022-08-01T19:01:20;0.50;;;0.30;;
20792;SDS011;10556;-33.662;151.094;2022-08-01T19:06:23;0.10;;;0.10;;
20792;SDS011;10556;-33.662;151.094;2022-08-01T19:11:25;0.30;;;0.20;;
20792;SDS011;10556;-33.662;151.094;2022-08-01T19:16:30;0.13;;;0.10;;
20792;SDS011;10556;-33.662;151.094;2022-08-01T19:21:32;0.20;;;0.10;;
20792;SDS011;10556;-33.662;151.094;2022-08-01T19:26:35;0.50;;;0.10;;
20792;SDS011;10556;-33.662;151.094;2022-08-01T19:31:41;0.20;;;0.07;;
20792;SDS011;10556;-33.662;151.094;2022-08-01T19:36:44;0.50;;;0.10;;
20792;SDS011;10556;-33.662;151.094;2022-08-01T19:41:48;1.33;;;0.30;;
20792;SDS011;10556;-33.662;151.094;2022-08-01T19:46:54;0.47;;;0.27;;
20792;SDS011;10556;-33.662;151.094;2022-08-01T19:51:57;0.93;;;0.20;;
20792;SDS011;10556;-33.662;151.094;2022-08-01T19:57:01;0.53;;;0.30;;
20792;SDS011;10556;-33.662;151.094;2022-08-01T20:02:07;0.53;;;0.23;;
20792;SDS011;10556;-33.662;151.094;2022-08-01T20:07:10;0.10;;;0.10;;
20792;SDS011;10556;-33.662;151.094;2022-08-01T20:12:13;0.50;;;0.10;;
20792;SDS011;10556;-33.662;151.094;2022-08-01T20:17:31;1.00;;;0.27;;
20792;SDS011;10556;-33.662;151.094;2022-08-01T20:22:33;0.73;;;0.10;;
20792;SDS011;10556;-33.662;151.094;2022-08-01T20:27:34;0.10;;;0.10;;
20792;SDS011;10556;-33.662;151.094;2022-08-01T20:32:39;0.30;;;0.10;;
20792;SDS011;10556;-33.662;151.094;2022-08-01T20:37:41;1.70;;;0.23;;
20792;SDS011;10556;-33.662;151.094;2022-08-01T20:42:42;0.40;;;0.20;;
20792;SDS011;10556;-33.662;151.094;2022-08-01T20:47:46;1.93;;;0.30;;
20792;SDS011;10556;-33.662;151.094;2022-08-01T20:52:49;0.40;;;0.37;;
20792;SDS011;10556;-33.662;151.094;2022-08-01T20:57:51;0.30;;;0.20;;
20792;SDS011;10556;-33.662;151.094;2022-08-01T21:02:57;0.60;;;0.20;;
20792;SDS011;10556;-33.662;151.094;2022-08-01T21:08:01;0.40;;;0.17;;
20792;SDS011;10556;-33.662;151.094;2022-08-01T21:13:03;0.73;;;0.20;;
20792;SDS011;10556;-33.662;151.094;2022-08-01T21:18:09;0.30;;;0.20;;
20792;SDS011;10556;-33.662;151.094;2022-08-01T21:23:13;0.30;;;0.20;;
20792;SDS011;10556;-33.662;151.094;2022-08-01T21:28:16;0.30;;;0.17;;
20792;SDS011;10556;-33.662;151.094;2022-08-01T21:33:20;0.17;;;0.10;;
20792;SDS011;10556;-33.662;151.094;2022-08-01T21:38:22;0.23;;;0.20;;
20792;SDS011;10556;-33.662;151.094;2022-08-01T21:43:24;0.40;;;0.30;;
20792;SDS011;10556;-33.662;151.094;2022-08-01T21:48:27;0.93;;;0.30;;
20792;SDS011;10556;-33.662;151.094;2022-08-01T21:53:31;0.30;;;0.20;;
20792;SDS011;10556;-33.662;151.094;2022-08-01T21:58:37;0.20;;;0.20;;
20792;SDS011;10556;-33.662;151.094;2022-08-01T22:03:44;0.50;;;0.30;;
20792;SDS011;10556;-33.662;151.094;2022-08-01T22:08:48;0.30;;;0.17;;
20792;SDS011;10556;-33.662;151.094;2022-08-01T22:13:51;0.20;;;0.20;;
20792;SDS011;10556;-33.662;151.094;2022-08-01T22:18:55;0.53;;;0.27;;
20792;SDS011;10556;-33.662;151.094;2022-08-01T22:23:57;1.43;;;0.30;;
20792;SDS011;10556;-33.662;151.094;2022-08-01T22:28:59;1.20;;;0.23;;
20792;SDS011;10556;-33.662;151.094;2022-08-01T22:34:03;0.63;;;0.20;;
20792;SDS011;10556;-33.662;151.094;2022-08-01T22:39:04;0.20;;;0.20;;
20792;SDS011;10556;-33.662;151.094;2022-08-01T22:44:07;0.57;;;0.20;;
20792;SDS011;10556;-33.662;151.094;2022-08-01T22:49:12;0.13;;;0.13;;
20792;SDS011;10556;-33.662;151.094;2022-08-01T22:54:18;0.33;;;0.17;;
20792;SDS011;10556;-33.662;151.094;2022-08-01T22:59:22;0.10;;;0.10;;
20792;SDS011;10556;-33.662;151.094;2022-08-01T23:04:30;0.20;;;0.20;;
20792;SDS011;10556;-33.662;151.094;2022-08-01T23:09:33;1.90;;;0.10;;
20792;SDS011;10556;-33.662;151.094;2022-08-01T23:14:35;0.40;;;0.10;;
20792;SDS011;10556;-33.662;151.094;2022-08-01T23:19:38;0.50;;;0.20;;
20792;SDS011;10556;-33.662;151.094;2022-08-01T23:24:41;0.47;;;0.20;;
20792;SDS011;10556;-33.662;151.094;2022-08-01T23:29:43;0.20;;;0.20;;
20792;SDS011;10556;-33.662;151.094;2022-08-01T23:34:48;0.30;;;0.20;;
20792;SDS011;10556;-33.662;151.094;2022-08-01T23:39:49;0.30;;;0.20;;
20792;SDS011;10556;-33.662;151.094;2022-08-01T23:44:51;0.73;;;0.20;;
20792;SDS011;10556;-33.662;151.094;2022-08-01T23:49:54;2.10;;;0.40;;
20792;SDS011;10556;-33.662;151.094;2022-08-01T23:54:55;0.40;;;0.30;;
20792;SDS011;10556;-33.662;151.094;2022-08-01T23:59:57;0.83;;;0.47;;
